Portada
METAR-TAF:

METAR-TAF

Aeropuertos :

Base Aérea de Armilla

Granada, España

latitud: 37-08N, longitud: 003-38-08W, altitud: 700 m

METAR: falta

Hora: 06:42 (05:42 UTC)

Pronóstico

El informe se hizo hace 42 minutos, a las 05:00 UTC
Pronóstico válido del 04 a las 06 UTC al 05 a las 06 UTC
Viento 2 kt con dirección variable
Visibilidad 10 km o más
Nubes dispersas a una altura de 2000 ft
Probabilidad 30%
del 04 a las 13 UTC al 04 a las 18 UTC
Viento 10 kt del noroeste
Probabilidad 30% :
Temporalmente
del 04 a las 21 UTC al 05 a las 03 UTC
Visibilidad: 4000 m
Cielo nuboso a una altura de 1400 ft
lluvia, neblina,

TAF: LEGA 040500Z 0406/0506 VRB02KT 9999 SCT020 TX16/0415Z TN04/0407Z PROB30 0413/0418 31010KT PROB30 TEMPO 0421/0503 4000 RA BR BKN014

Observaciones y pronósticos meteorológicos de más de 4000 aeropuertos (mensajes METAR y TAF).

Los puntos amarillos y rojos representan las estaciones disponibles.

Ponga el ratón en el punto deseado para ver el nombre de la estación.

Haga clic para ver las observaciones y los pronósticos meteorológicos.

Para cambiar el mapa : haga clic en los botones verdes con una cruz de color negro para hacer un zoom, en el botón verde con un guión para alejar o en las flechas verdes para mapas adyacentes.


METAR-TAF: